Sherborn, MA

2:06 AM EDT on October 21, 2014 (GMT -0400)
Sherborn | Change Station
CLOSE
Current Station
Personal Weather Station
Location: Sherborn, MA
Elevation: 240 ft
Nearby Weather Stations

Elev 240 ft 42.25 °N, 71.37 °W | Updated 14 minutes ago

Partly Cloudy
Partly Cloudy
42.7 °F
Feels Like 43 °F
N
0.0
Wind Variable Wind from SSE
Gusts 1.0 mph

Today
High -- | Low -- °F
--% Chance of Precip.
Yesterday
High -- | Low -- °F
Precip. -- in
7:05 AM 5:54 PM
Waning Crescent, 7% visible
Pressure 30.00 in
Visibility 10.0 miles
Clouds Clear
Windchill 43 °F
Dew Point 41 °F
Humidity 93%
Rainfall 0.00 in
Snow Depth Not available.
UV 0 out of 12
Pollen 1.60 out of 12
Air Quality Not available.
Flu Activity No Activity
METAR KOWD 210553Z 00000KT 10SM CLR 04/03 A3000 RMK AO2 SLP158 T00440033 10089 20039 57002

More Conditions Fewer Conditions

Pressure 30.00 in
Visibility 10.0 miles
Clouds Clear
Windchill 43 °F
Dew Point 41 °F
Humidity 93%
Rainfall 0.00 in
Snow Depth Not available.
UV 0 out of 12
Pollen 1.60 out of 12
Air Quality Not available.
Flu Activity No Activity
METAR KOWD 210553Z 00000KT 10SM CLR 04/03 A3000 RMK AO2 SLP158 T00440033 10089 20039 57002

More Conditions Fewer Conditions

10-Day Weather Forecast

Almanac

Astronomy

Oct. 21, 2014 Rise Set
Actual Time 7:05 AM EDT 5:54 PM EDT
Civil Twilight 6:36 AM EDT 6:22 PM EDT
Nautical Twilight 6:04 AM EDT 6:55 PM EDT
Astronomical Twilight 5:31 AM EDT 7:27 PM EDT
Moon 4:44 AM EDT 4:48 PM EDT
Length of Visible Light 11h 46m
Length of Day
10h 49m
Tomorrow will be 2m 41s shorter.
Waning Crescent, 7% of the Moon is Illuminated
Today
Waning Crescent
Oct 23
New
Oct 30
First Quarter
Nov 6
Full
Nov 14
Last Quarter

Today's Extremes

State Highs State Lows

Community

WunderPhotos

Upload Photos

1,763,614 photos uploaded!

Nearby

Air Quality

  Air Quality AQ Index Pollutant
Tuesday Good
PM2.5
Wednesday Good
PM2.5
Thursday Good
PM2.5

Snow Depth

Station Depth Elevation
No new snow has been reported.

Earthquake Activity

City Distance Mag. Time & Date
No recent earthquake activity has been reported nearby.
Minimum magnitude displayed is 2.5.

Coastal Water Temperatures

Place Temperature
Boston, MA 57.0 °F
Providence, RI 60.1 °F
Fall River, MA 63.0 °F
Conimicut Light, RI 61.0 °F

Nearby Weather Stations